Ewen, MI

12:03 PM EDT on August 01, 2014 (GMT -0400)
Kings Land O'Lakes (KLNL) Elev 1706 ft | 46.15 °N, 89.21 °W | Change Station

Current weather conditions updated 8 minutes ago

Clear
Clear
72 °F
Feels Like 72 °F
N
5
Wind Variable Wind from North

Today is forecast to be nearly the same temperature as yesterday.

Today
High -- | Low -- °F
--% Chance of Precip.
Yesterday
High -- | Low -- °F
Precip. -- in
6:38 AM 9:28 PM
Waxing Crescent, 27% visible
Pressure 30.10 in
Visibility 10.0 miles
Clouds Clear
Dew Point 49 °F
Humidity 44%
Rainfall 0.00 in
Snow Depth Not available.
UV 8 out of 12
Pollen 7.20 out of 12
Air Quality Not available.
Flu Activity Not available.
METAR KLNL 011555Z AUTO 36004KT 10SM CLR 22/10 A3010 RMK AO2 T02240096

More Conditions Fewer Conditions

Pressure 30.10 in
Visibility 10.0 miles
Clouds Clear
Dew Point 49 °F
Humidity 44%
Rainfall 0.00 in
Snow Depth Not available.
UV 8 out of 12
Pollen 7.20 out of 12
Air Quality Not available.
Flu Activity Not available.
METAR KLNL 011555Z AUTO 36004KT 10SM CLR 22/10 A3010 RMK AO2 T02240096

More Conditions Fewer Conditions

10-Day Weather Forecast

Almanac

Astronomy

Aug. 01, 2014 Rise Set
Actual Time 6:38 AM EDT 9:28 PM EDT
Civil Twilight 6:03 AM EDT 10:03 PM EDT
Nautical Twilight 5:18 AM EDT 10:47 PM EDT
Astronomical Twilight 4:25 AM EDT 11:40 PM EDT
Moon 12:24 PM EDT 11:49 PM EDT
Length of Visible Light 16h 00m
Length of Day
14h 50m
Tomorrow will be 2m 35s shorter.
Waxing Crescent, 27% of the Moon is Illuminated
Today
Waxing Crescent
Aug 3
First Quarter
Aug 10
Full
Aug 17
Last Quarter
Aug 25
New

Today's Extremes

State Highs State Lows

Community

WunderPhotos

Upload Photos

1,739,621 photos uploaded!

Nearby

Snow Depth

Station Depth Elevation
No new snow has been reported.

Earthquake Activity

City Distance Mag. Time & Date
No recent earthquake activity has been reported nearby.
Minimum magnitude displayed is 2.5.

Coastal Water Temperatures

Place Temperature
No Stations Reporting

Nearby Weather Stations

Station Location Temp. Heat Index Dew Point Humidity Wind Precip. Elev Updated Type
East Shore Rd, Marenisco, Marenisco, MI 69.6 °F - 59 °F 68% West  at  0.0 mph - / hr 1316 ft 10:59 AM CDT Normal
RAWS WATERSMEET MI, Watersmeet, MI 69 °F - 56 °F 64% NE  at  1 mph 0.00 in / hr 1604 ft 9:37 AM CDT MADIS
Mountain View Lodges, Silver City, MI / , Ontonagon, MI 66.6 °F - 61 °F 82% NNW  at  2.0 mph 0.00 in / hr 587 ft 12:00 PM EDT Normal
RAWS WAKEFIELD MI, Wakefield, MI 72 °F 76 °F 58 °F 61% East  at  2 mph 0.00 in / hr 1200 ft 10:01 AM CDT MADIS
RAWS KENTON MI, Nisula, MI 72 °F 76 °F 59 °F 64% NE  at  2 mph 0.00 in / hr 1262 ft 10:56 AM EDT MADIS
Wisconsin Ave., Ontonagon, MI 76.3 °F 78 °F 60 °F 57% North  at  0.0 mph 0.00 in / hr 636 ft 11:59 AM EDT Normal

Show More Stations Show Fewer Stations